Olim IV — CFK9604 — position and weather

sailwx.info

Track history (hours):
 
Tides and Currents Weather Stations Pressure Air Temp Water Temp Dewpoint Dewpoint Depression Visibility Wind Speed Wind Dir Waves Ship Positions

Olim IV

Last reported at 2016-Sep-24 21:22 UTC. Time now 2016-Dec-10 12:48 UTC.
Position N 48°44' W 122°31'.
Warning: this ship's position is months out of date.

Length 14 m.

Type: Pleasure craft. MMSI: 316017604.

Date/timePositionNaut miles runAvg speedWind from/ knotsBaromVisibWave heightAir tempDewpointWater temp
2016-Sep-24 21:22N 48°44' W 122°31'10 5.2
2016-Sep-24 19:32N 48°40' W 122°44'4 3.6
2016-Sep-24 18:31N 48°36' W 122°47'6 6.2
2016-Sep-24 17:28N 48°35' W 122°56'3 0.1
2016-Sep-23 00:29N 48°36' W 122°60'17 0.7
2016-Sep-22 00:21N 48°41' W 123°25'11 5.6
2016-Sep-21 22:20N 48°50' W 123°35'23 8.0
2016-Sep-21 19:31N 49°09' W 123°52'23 7.7
2016-Sep-21 16:29N 49°23' W 124°22'17 0.4
2016-Sep-19 23:30N 49°33' W 124°43'  
2016-Sep-15 18:31N 50°53' W 127°20'14 2.0
2016-Sep-15 11:27N 51°04' W 127°35'2 0.3
2016-Sep-15 03:31N 51°03' W 127°38'  
Track history (hours):
 
Tides and Currents Weather Stations Pressure Air Temp Water Temp Dewpoint Dewpoint Depression Visibility Wind Speed Wind Dir Waves Ship Positions

Olim IV

Last reported at 2016-Sep-24 21:22 UTC. Time now 2016-Dec-10 12:48 UTC.
Position N 48°44' W 122°31'.
Warning: this ship's position is months out of date.

Length 14 m.

Type: Pleasure craft. MMSI: 316017604.

Date/timePositionNaut miles runAvg speedWind from/ knotsBaromVisibWave heightAir tempDewpointWater temp
2016-Sep-24 21:22N 48°44' W 122°31'10 5.2
2016-Sep-24 19:32N 48°40' W 122°44'4 3.6
2016-Sep-24 18:31N 48°36' W 122°47'6 6.2
2016-Sep-24 17:28N 48°35' W 122°56'3 0.1
2016-Sep-23 00:29N 48°36' W 122°60'17 0.7
2016-Sep-22 00:21N 48°41' W 123°25'11 5.6
2016-Sep-21 22:20N 48°50' W 123°35'23 8.0
2016-Sep-21 19:31N 49°09' W 123°52'23 7.7
2016-Sep-21 16:29N 49°23' W 124°22'17 0.4
2016-Sep-19 23:30N 49°33' W 124°43'  
2016-Sep-15 18:31N 50°53' W 127°20'14 2.0
2016-Sep-15 11:27N 51°04' W 127°35'2 0.3
2016-Sep-15 03:31N 51°03' W 127°38'  

Dump ship's entire track history